sensor_id;sensor_type;location;lat;lon;timestamp;P1;durP1;ratioP1;P2;durP2;ratioP2
42226;SDS011;27892;52.378;13.122;2023-06-22T00:00:53;4.40;;;4.00;;
42226;SDS011;27892;52.378;13.122;2023-06-22T00:03:19;4.13;;;3.83;;
42226;SDS011;27892;52.378;13.122;2023-06-22T00:05:46;3.90;;;3.60;;
42226;SDS011;27892;52.378;13.122;2023-06-22T00:08:13;4.40;;;4.00;;
42226;SDS011;27892;52.378;13.122;2023-06-22T00:10:39;3.90;;;3.60;;
42226;SDS011;27892;52.378;13.122;2023-06-22T00:13:06;3.95;;;3.65;;
42226;SDS011;27892;52.378;13.122;2023-06-22T00:15:33;4.13;;;3.83;;
42226;SDS011;27892;52.378;13.122;2023-06-22T00:17:59;3.90;;;3.60;;
42226;SDS011;27892;52.378;13.122;2023-06-22T00:20:25;4.20;;;3.80;;
42226;SDS011;27892;52.378;13.122;2023-06-22T00:22:58;3.90;;;3.60;;
42226;SDS011;27892;52.378;13.122;2023-06-22T00:25:24;4.28;;;3.97;;
42226;SDS011;27892;52.378;13.122;2023-06-22T00:27:50;3.97;;;3.67;;
42226;SDS011;27892;52.378;13.122;2023-06-22T00:30:16;4.13;;;3.83;;
42226;SDS011;27892;52.378;13.122;2023-06-22T00:32:43;3.90;;;3.60;;
42226;SDS011;27892;52.378;13.122;2023-06-22T00:35:10;4.20;;;3.90;;
42226;SDS011;27892;52.378;13.122;2023-06-22T00:37:37;4.70;;;4.30;;
42226;SDS011;27892;52.378;13.122;2023-06-22T00:40:06;5.72;;;5.22;;
42226;SDS011;27892;52.378;13.122;2023-06-22T00:42:33;5.05;;;4.55;;
42226;SDS011;27892;52.378;13.122;2023-06-22T00:44:59;5.20;;;4.80;;
42226;SDS011;27892;52.378;13.122;2023-06-22T00:47:25;4.70;;;4.30;;
42226;SDS011;27892;52.378;13.122;2023-06-22T00:49:51;4.60;;;4.20;;
42226;SDS011;27892;52.378;13.122;2023-06-22T00:52:18;4.63;;;4.18;;
42226;SDS011;27892;52.378;13.122;2023-06-22T00:54:50;3.88;;;3.58;;
42226;SDS011;27892;52.378;13.122;2023-06-22T00:57:16;4.10;;;3.80;;
42226;SDS011;27892;52.378;13.122;2023-06-22T00:59:47;3.70;;;3.40;;
42226;SDS011;27892;52.378;13.122;2023-06-22T01:02:13;3.83;;;3.53;;
42226;SDS011;27892;52.378;13.122;2023-06-22T01:04:40;3.88;;;3.58;;
42226;SDS011;27892;52.378;13.122;2023-06-22T01:09:49;3.25;;;3.05;;
42226;SDS011;27892;52.378;13.122;2023-06-22T01:12:34;3.78;;;3.47;;
42226;SDS011;27892;52.378;13.122;2023-06-22T01:15:10;3.30;;;3.10;;
42226;SDS011;27892;52.378;13.122;2023-06-22T01:17:40;3.53;;;3.22;;
42226;SDS011;27892;52.378;13.122;2023-06-22T01:20:08;3.70;;;3.40;;
42226;SDS011;27892;52.378;13.122;2023-06-22T01:22:54;3.72;;;3.42;;
42226;SDS011;27892;52.378;13.122;2023-06-22T01:25:43;4.63;;;4.22;;
42226;SDS011;27892;52.378;13.122;2023-06-22T01:28:34;4.53;;;4.13;;
42226;SDS011;27892;52.378;13.122;2023-06-22T01:31:07;3.60;;;3.30;;
42226;SDS011;27892;52.378;13.122;2023-06-22T01:33:37;3.90;;;3.60;;
42226;SDS011;27892;52.378;13.122;2023-06-22T01:36:05;3.65;;;3.35;;
42226;SDS011;27892;52.378;13.122;2023-06-22T01:38:32;4.35;;;3.95;;
42226;SDS011;27892;52.378;13.122;2023-06-22T01:40:59;3.90;;;3.60;;
42226;SDS011;27892;52.378;13.122;2023-06-22T01:43:26;4.40;;;4.10;;
42226;SDS011;27892;52.378;13.122;2023-06-22T01:45:53;4.28;;;3.97;;
42226;SDS011;27892;52.378;13.122;2023-06-22T01:48:20;4.18;;;3.88;;
42226;SDS011;27892;52.378;13.122;2023-06-22T01:50:47;4.22;;;3.92;;
42226;SDS011;27892;52.378;13.122;2023-06-22T01:53:13;4.85;;;4.45;;
42226;SDS011;27892;52.378;13.122;2023-06-22T01:55:39;4.10;;;3.70;;
42226;SDS011;27892;52.378;13.122;2023-06-22T01:58:04;4.63;;;4.22;;
42226;SDS011;27892;52.378;13.122;2023-06-22T02:00:31;4.47;;;4.15;;
42226;SDS011;27892;52.378;13.122;2023-06-22T02:03:02;4.28;;;3.97;;
42226;SDS011;27892;52.378;13.122;2023-06-22T02:05:50;4.00;;;3.70;;
42226;SDS011;27892;52.378;13.122;2023-06-22T02:08:21;4.05;;;3.75;;
42226;SDS011;27892;52.378;13.122;2023-06-22T02:10:50;4.38;;;3.97;;
42226;SDS011;27892;52.378;13.122;2023-06-22T02:13:18;5.22;;;4.72;;
42226;SDS011;27892;52.378;13.122;2023-06-22T02:15:45;4.32;;;3.92;;
42226;SDS011;27892;52.378;13.122;2023-06-22T02:18:12;4.30;;;4.00;;
42226;SDS011;27892;52.378;13.122;2023-06-22T02:20:39;4.57;;;4.18;;
42226;SDS011;27892;52.378;13.122;2023-06-22T02:23:05;4.63;;;4.22;;
42226;SDS011;27892;52.378;13.122;2023-06-22T02:25:32;4.65;;;4.25;;
42226;SDS011;27892;52.378;13.122;2023-06-22T02:27:58;4.05;;;3.75;;
42226;SDS011;27892;52.378;13.122;2023-06-22T02:30:23;4.13;;;3.80;;
42226;SDS011;27892;52.378;13.122;2023-06-22T02:32:49;3.50;;;3.20;;
42226;SDS011;27892;52.378;13.122;2023-06-22T02:35:27;3.75;;;3.45;;
42226;SDS011;27892;52.378;13.122;2023-06-22T02:37:59;3.40;;;3.10;;
42226;SDS011;27892;52.378;13.122;2023-06-22T02:40:26;3.42;;;3.20;;
42226;SDS011;27892;52.378;13.122;2023-06-22T02:42:52;3.85;;;3.55;;
42226;SDS011;27892;52.378;13.122;2023-06-22T02:45:17;3.90;;;3.60;;
42226;SDS011;27892;52.378;13.122;2023-06-22T02:47:43;4.28;;;3.97;;
42226;SDS011;27892;52.378;13.122;2023-06-22T02:50:09;3.85;;;3.55;;
42226;SDS011;27892;52.378;13.122;2023-06-22T02:52:35;4.25;;;3.20;;
42226;SDS011;27892;52.378;13.122;2023-06-22T02:55:01;3.80;;;3.50;;
42226;SDS011;27892;52.378;13.122;2023-06-22T02:57:27;4.05;;;3.75;;
42226;SDS011;27892;52.378;13.122;2023-06-22T02:59:52;4.53;;;4.13;;
42226;SDS011;27892;52.378;13.122;2023-06-22T03:02:18;4.70;;;4.20;;
42226;SDS011;27892;52.378;13.122;2023-06-22T03:04:46;7.38;;;6.68;;
42226;SDS011;27892;52.378;13.122;2023-06-22T03:07:14;8.00;;;7.20;;
42226;SDS011;27892;52.378;13.122;2023-06-22T03:09:42;10.48;;;9.38;;
42226;SDS011;27892;52.378;13.122;2023-06-22T03:12:08;7.78;;;7.05;;
42226;SDS011;27892;52.378;13.122;2023-06-22T03:14:34;7.47;;;6.78;;
42226;SDS011;27892;52.378;13.122;2023-06-22T03:16:59;8.60;;;7.80;;
42226;SDS011;27892;52.378;13.122;2023-06-22T03:19:28;8.90;;;8.02;;
42226;SDS011;27892;52.378;13.122;2023-06-22T03:21:56;6.53;;;5.93;;
42226;SDS011;27892;52.378;13.122;2023-06-22T03:24:22;5.50;;;5.00;;
42226;SDS011;27892;52.378;13.122;2023-06-22T03:26:48;4.95;;;4.55;;
42226;SDS011;27892;52.378;13.122;2023-06-22T03:29:14;4.43;;;4.07;;
42226;SDS011;27892;52.378;13.122;2023-06-22T03:31:40;4.63;;;4.22;;
42226;SDS011;27892;52.378;13.122;2023-06-22T03:34:06;3.88;;;3.58;;
42226;SDS011;27892;52.378;13.122;2023-06-22T03:36:32;3.90;;;3.60;;
42226;SDS011;27892;52.378;13.122;2023-06-22T03:38:57;5.80;;;5.22;;
42226;SDS011;27892;52.378;13.122;2023-06-22T03:41:23;6.13;;;5.63;;
42226;SDS011;27892;52.378;13.122;2023-06-22T03:43:49;6.03;;;5.47;;
42226;SDS011;27892;52.378;13.122;2023-06-22T03:46:14;5.38;;;4.90;;
42226;SDS011;27892;52.378;13.122;2023-06-22T03:48:40;8.85;;;7.90;;
42226;SDS011;27892;52.378;13.122;2023-06-22T03:51:06;10.60;;;9.50;;
42226;SDS011;27892;52.378;13.122;2023-06-22T03:53:31;11.02;;;9.93;;
42226;SDS011;27892;52.378;13.122;2023-06-22T03:55:57;11.23;;;9.60;;
42226;SDS011;27892;52.378;13.122;2023-06-22T03:58:22;13.68;;;12.07;;
42226;SDS011;27892;52.378;13.122;2023-06-22T04:00:52;13.63;;;12.07;;
42226;SDS011;27892;52.378;13.122;2023-06-22T04:03:18;13.95;;;12.40;;
42226;SDS011;27892;52.378;13.122;2023-06-22T04:05:44;14.43;;;11.70;;
42226;SDS011;27892;52.378;13.122;2023-06-22T04:08:12;11.40;;;9.73;;
42226;SDS011;27892;52.378;13.122;2023-06-22T04:10:38;12.57;;;10.30;;
42226;SDS011;27892;52.378;13.122;2023-06-22T04:13:04;10.27;;;9.27;;
42226;SDS011;27892;52.378;13.122;2023-06-22T04:15:30;12.52;;;11.15;;
42226;SDS011;27892;52.378;13.122;2023-06-22T04:17:55;13.25;;;10.82;;
42226;SDS011;27892;52.378;13.122;2023-06-22T04:20:22;11.40;;;10.27;;
42226;SDS011;27892;52.378;13.122;2023-06-22T04:22:50;13.93;;;11.40;;
42226;SDS011;27892;52.378;13.122;2023-06-22T04:25:19;14.75;;;12.27;;
42226;SDS011;27892;52.378;13.122;2023-06-22T04:27:45;17.20;;;13.18;;
42226;SDS011;27892;52.378;13.122;2023-06-22T04:30:11;14.27;;;12.38;;
42226;SDS011;27892;52.378;13.122;2023-06-22T04:32:40;13.77;;;12.27;;
42226;SDS011;27892;52.378;13.122;2023-06-22T04:35:06;11.23;;;10.10;;
42226;SDS011;27892;52.378;13.122;2023-06-22T04:37:32;8.63;;;7.75;;
42226;SDS011;27892;52.378;13.122;2023-06-22T04:39:58;11.70;;;10.50;;
42226;SDS011;27892;52.378;13.122;2023-06-22T04:42:27;13.00;;;11.65;;
42226;SDS011;27892;52.378;13.122;2023-06-22T04:44:53;11.98;;;10.55;;
42226;SDS011;27892;52.378;13.122;2023-06-22T04:47:19;14.30;;;11.90;;
42226;SDS011;27892;52.378;13.122;2023-06-22T04:49:45;14.50;;;12.20;;
42226;SDS011;27892;52.378;13.122;2023-06-22T04:52:12;13.55;;;10.95;;
42226;SDS011;27892;52.378;13.122;2023-06-22T04:54:38;10.85;;;9.75;;
42226;SDS011;27892;52.378;13.122;2023-06-22T04:57:13;12.75;;;10.13;;
42226;SDS011;27892;52.378;13.122;2023-06-22T04:59:40;8.63;;;7.80;;
42226;SDS011;27892;52.378;13.122;2023-06-22T05:02:07;9.10;;;8.07;;
42226;SDS011;27892;52.378;13.122;2023-06-22T05:04:33;15.45;;;13.32;;
42226;SDS011;27892;52.378;13.122;2023-06-22T05:07:00;11.02;;;9.75;;
42226;SDS011;27892;52.378;13.122;2023-06-22T05:09:27;12.18;;;10.88;;
42226;SDS011;27892;52.378;13.122;2023-06-22T05:11:54;11.70;;;10.48;;
42226;SDS011;27892;52.378;13.122;2023-06-22T05:14:21;10.80;;;9.70;;
42226;SDS011;27892;52.378;13.122;2023-06-22T05:16:47;12.15;;;10.32;;
42226;SDS011;27892;52.378;13.122;2023-06-22T05:19:13;10.20;;;9.20;;
42226;SDS011;27892;52.378;13.122;2023-06-22T05:21:39;12.30;;;10.05;;
42226;SDS011;27892;52.378;13.122;2023-06-22T05:24:04;12.57;;;9.55;;
42226;SDS011;27892;52.378;13.122;2023-06-22T05:26:31;9.38;;;8.10;;
42226;SDS011;27892;52.378;13.122;2023-06-22T05:28:58;7.75;;;7.05;;
42226;SDS011;27892;52.378;13.122;2023-06-22T05:31:25;9.38;;;8.40;;
42226;SDS011;27892;52.378;13.122;2023-06-22T05:33:52;11.25;;;8.90;;
42226;SDS011;27892;52.378;13.122;2023-06-22T05:36:19;7.82;;;7.07;;
42226;SDS011;27892;52.378;13.122;2023-06-22T05:38:45;7.35;;;6.60;;
42226;SDS011;27892;52.378;13.122;2023-06-22T05:41:10;7.32;;;6.50;;
42226;SDS011;27892;52.378;13.122;2023-06-22T05:43:36;10.20;;;9.05;;
42226;SDS011;27892;52.378;13.122;2023-06-22T05:46:03;9.27;;;8.35;;
42226;SDS011;27892;52.378;13.122;2023-06-22T05:48:29;8.00;;;7.20;;
42226;SDS011;27892;52.378;13.122;2023-06-22T05:50:55;7.45;;;6.65;;
42226;SDS011;27892;52.378;13.122;2023-06-22T05:53:21;6.63;;;5.97;;
42226;SDS011;27892;52.378;13.122;2023-06-22T05:55:47;8.65;;;7.20;;
42226;SDS011;27892;52.378;13.122;2023-06-22T05:58:13;7.32;;;6.57;;
42226;SDS011;27892;52.378;13.122;2023-06-22T06:00:38;8.90;;;8.07;;
42226;SDS011;27892;52.378;13.122;2023-06-22T06:03:05;7.47;;;6.78;;
42226;SDS011;27892;52.378;13.122;2023-06-22T06:05:32;8.85;;;6.60;;
42226;SDS011;27892;52.378;13.122;2023-06-22T06:07:59;8.60;;;7.57;;
42226;SDS011;27892;52.378;13.122;2023-06-22T06:10:25;10.95;;;9.52;;
42226;SDS011;27892;52.378;13.122;2023-06-22T06:12:51;8.65;;;7.75;;
42226;SDS011;27892;52.378;13.122;2023-06-22T06:15:17;7.00;;;6.15;;
42226;SDS011;27892;52.378;13.122;2023-06-22T06:17:50;6.90;;;5.45;;
42226;SDS011;27892;52.378;13.122;2023-06-22T06:20:21;5.50;;;5.00;;
42226;SDS011;27892;52.378;13.122;2023-06-22T06:22:48;5.90;;;5.05;;
42226;SDS011;27892;52.378;13.122;2023-06-22T06:25:14;5.35;;;4.85;;
42226;SDS011;27892;52.378;13.122;2023-06-22T06:27:49;7.75;;;5.93;;
42226;SDS011;27892;52.378;13.122;2023-06-22T06:30:16;5.82;;;5.20;;
42226;SDS011;27892;52.378;13.122;2023-06-22T06:32:43;5.05;;;4.60;;
42226;SDS011;27892;52.378;13.122;2023-06-22T06:35:10;5.68;;;5.13;;
42226;SDS011;27892;52.378;13.122;2023-06-22T06:37:41;7.45;;;5.47;;
42226;SDS011;27892;52.378;13.122;2023-06-22T06:40:08;4.75;;;4.35;;
42226;SDS011;27892;52.378;13.122;2023-06-22T06:42:38;5.47;;;4.97;;
42226;SDS011;27892;52.378;13.122;2023-06-22T06:45:10;6.20;;;5.03;;
42226;SDS011;27892;52.378;13.122;2023-06-22T06:47:41;5.10;;;4.60;;
42226;SDS011;27892;52.378;13.122;2023-06-22T06:50:07;6.90;;;4.72;;
42226;SDS011;27892;52.378;13.122;2023-06-22T06:52:33;5.30;;;4.72;;
42226;SDS011;27892;52.378;13.122;2023-06-22T06:54:59;4.40;;;4.00;;
42226;SDS011;27892;52.378;13.122;2023-06-22T06:57:24;5.18;;;4.57;;
42226;SDS011;27892;52.378;13.122;2023-06-22T06:59:54;4.35;;;3.95;;
42226;SDS011;27892;52.378;13.122;2023-06-22T07:02:20;4.57;;;3.95;;
42226;SDS011;27892;52.378;13.122;2023-06-22T07:04:46;7.32;;;4.35;;
42226;SDS011;27892;52.378;13.122;2023-06-22T07:07:13;3.78;;;3.47;;
42226;SDS011;27892;52.378;13.122;2023-06-22T07:09:38;3.55;;;3.00;;
42226;SDS011;27892;52.378;13.122;2023-06-22T07:12:04;3.75;;;3.35;;
42226;SDS011;27892;52.378;13.122;2023-06-22T07:14:30;3.60;;;3.17;;
42226;SDS011;27892;52.378;13.122;2023-06-22T07:16:57;3.75;;;3.00;;
42226;SDS011;27892;52.378;13.122;2023-06-22T07:19:26;3.38;;;3.17;;
42226;SDS011;27892;52.378;13.122;2023-06-22T07:21:53;4.50;;;4.07;;
42226;SDS011;27892;52.378;13.122;2023-06-22T07:24:22;4.05;;;3.65;;
42226;SDS011;27892;52.378;13.122;2023-06-22T07:26:49;3.97;;;3.58;;
42226;SDS011;27892;52.378;13.122;2023-06-22T07:29:16;3.22;;;2.92;;
42226;SDS011;27892;52.378;13.122;2023-06-22T07:31:42;3.80;;;3.40;;
42226;SDS011;27892;52.378;13.122;2023-06-22T07:34:08;3.78;;;3.40;;
42226;SDS011;27892;52.378;13.122;2023-06-22T07:36:34;3.60;;;3.28;;
42226;SDS011;27892;52.378;13.122;2023-06-22T07:39:01;4.40;;;4.00;;
42226;SDS011;27892;52.378;13.122;2023-06-22T07:41:30;4.40;;;4.00;;
42226;SDS011;27892;52.378;13.122;2023-06-22T07:43:56;4.18;;;3.70;;
42226;SDS011;27892;52.378;13.122;2023-06-22T07:46:22;4.30;;;3.90;;
42226;SDS011;27892;52.378;13.122;2023-06-22T07:48:48;3.83;;;3.47;;
42226;SDS011;27892;52.378;13.122;2023-06-22T07:51:13;4.20;;;3.80;;
42226;SDS011;27892;52.378;13.122;2023-06-22T07:53:43;5.20;;;4.20;;
42226;SDS011;27892;52.378;13.122;2023-06-22T07:56:12;4.82;;;3.78;;
42226;SDS011;27892;52.378;13.122;2023-06-22T07:58:43;4.75;;;4.35;;
42226;SDS011;27892;52.378;13.122;2023-06-22T08:01:10;6.15;;;4.38;;
42226;SDS011;27892;52.378;13.122;2023-06-22T08:03:36;8.02;;;4.00;;
42226;SDS011;27892;52.378;13.122;2023-06-22T08:06:02;4.03;;;3.72;;
42226;SDS011;27892;52.378;13.122;2023-06-22T08:08:27;3.97;;;3.58;;
42226;SDS011;27892;52.378;13.122;2023-06-22T08:10:53;4.97;;;4.10;;
42226;SDS011;27892;52.378;13.122;2023-06-22T08:13:19;6.30;;;4.20;;
42226;SDS011;27892;52.378;13.122;2023-06-22T08:15:45;4.72;;;4.32;;
42226;SDS011;27892;52.378;13.122;2023-06-22T08:18:10;4.70;;;4.30;;
42226;SDS011;27892;52.378;13.122;2023-06-22T08:20:36;4.82;;;4.32;;
42226;SDS011;27892;52.378;13.122;2023-06-22T08:23:02;4.28;;;3.75;;
42226;SDS011;27892;52.378;13.122;2023-06-22T08:25:32;3.90;;;3.58;;
42226;SDS011;27892;52.378;13.122;2023-06-22T08:27:59;4.35;;;3.95;;
42226;SDS011;27892;52.378;13.122;2023-06-22T08:30:25;4.32;;;3.92;;
42226;SDS011;27892;52.378;13.122;2023-06-22T08:32:51;4.68;;;4.20;;
42226;SDS011;27892;52.378;13.122;2023-06-22T08:35:17;4.97;;;4.18;;
42226;SDS011;27892;52.378;13.122;2023-06-22T08:37:42;4.53;;;4.00;;
42226;SDS011;27892;52.378;13.122;2023-06-22T08:40:09;4.05;;;3.67;;
42226;SDS011;27892;52.378;13.122;2023-06-22T08:42:40;5.47;;;4.00;;
42226;SDS011;27892;52.378;13.122;2023-06-22T08:45:06;4.07;;;3.53;;
42226;SDS011;27892;52.378;13.122;2023-06-22T08:47:32;4.82;;;3.60;;
42226;SDS011;27892;52.378;13.122;2023-06-22T08:49:58;3.20;;;2.90;;
42226;SDS011;27892;52.378;13.122;2023-06-22T08:52:24;4.40;;;3.55;;
42226;SDS011;27892;52.378;13.122;2023-06-22T08:54:50;3.90;;;3.20;;
42226;SDS011;27892;52.378;13.122;2023-06-22T08:57:16;4.93;;;3.75;;
42226;SDS011;27892;52.378;13.122;2023-06-22T08:59:42;3.47;;;3.17;;
42226;SDS011;27892;52.378;13.122;2023-06-22T09:02:07;3.60;;;3.30;;
42226;SDS011;27892;52.378;13.122;2023-06-22T09:04:34;4.03;;;3.20;;
42226;SDS011;27892;52.378;13.122;2023-06-22T09:07:00;3.67;;;3.35;;
42226;SDS011;27892;52.378;13.122;2023-06-22T09:09:26;4.82;;;3.42;;
42226;SDS011;27892;52.378;13.122;2023-06-22T09:11:52;3.47;;;3.13;;
42226;SDS011;27892;52.378;13.122;2023-06-22T09:14:18;3.45;;;3.15;;
42226;SDS011;27892;52.378;13.122;2023-06-22T09:16:43;3.40;;;3.10;;
42226;SDS011;27892;52.378;13.122;2023-06-22T09:19:09;4.28;;;3.42;;
42226;SDS011;27892;52.378;13.122;2023-06-22T09:21:35;5.13;;;3.20;;
42226;SDS011;27892;52.378;13.122;2023-06-22T09:24:01;3.50;;;2.88;;
42226;SDS011;27892;52.378;13.122;2023-06-22T09:26:28;3.95;;;3.60;;
42226;SDS011;27892;52.378;13.122;2023-06-22T09:28:53;4.65;;;3.58;;
42226;SDS011;27892;52.378;13.122;2023-06-22T09:31:19;3.30;;;3.00;;
42226;SDS011;27892;52.378;13.122;2023-06-22T09:33:53;3.17;;;2.70;;
42226;SDS011;27892;52.378;13.122;2023-06-22T09:36:20;3.30;;;3.00;;
42226;SDS011;27892;52.378;13.122;2023-06-22T09:38:47;3.67;;;3.38;;
42226;SDS011;27892;52.378;13.122;2023-06-22T09:41:13;3.40;;;3.10;;
42226;SDS011;27892;52.378;13.122;2023-06-22T09:43:39;32.83;;;25.15;;
42226;SDS011;27892;52.378;13.122;2023-06-22T09:46:04;6.65;;;5.88;;
42226;SDS011;27892;52.378;13.122;2023-06-22T09:48:30;3.85;;;3.55;;
42226;SDS011;27892;52.378;13.122;2023-06-22T09:50:56;4.18;;;3.80;;
42226;SDS011;27892;52.378;13.122;2023-06-22T09:53:22;4.90;;;3.53;;
42226;SDS011;27892;52.378;13.122;2023-06-22T09:55:48;3.90;;;3.50;;
42226;SDS011;27892;52.378;13.122;2023-06-22T09:58:13;3.90;;;3.60;;
42226;SDS011;27892;52.378;13.122;2023-06-22T10:00:39;4.05;;;3.70;;
42226;SDS011;27892;52.378;13.122;2023-06-22T10:03:06;5.10;;;3.78;;
42226;SDS011;27892;52.378;13.122;2023-06-22T10:05:32;4.72;;;4.30;;
42226;SDS011;27892;52.378;13.122;2023-06-22T10:07:58;4.30;;;3.90;;
42226;SDS011;27892;52.378;13.122;2023-06-22T10:10:24;5.60;;;4.32;;
42226;SDS011;27892;52.378;13.122;2023-06-22T10:12:56;4.13;;;3.72;;
42226;SDS011;27892;52.378;13.122;2023-06-22T10:15:23;4.38;;;3.78;;
42226;SDS011;27892;52.378;13.122;2023-06-22T10:17:49;4.03;;;3.63;;
42226;SDS011;27892;52.378;13.122;2023-06-22T10:20:15;5.35;;;4.18;;
42226;SDS011;27892;52.378;13.122;2023-06-22T10:22:43;5.07;;;4.30;;
42226;SDS011;27892;52.378;13.122;2023-06-22T10:25:10;4.30;;;3.90;;
42226;SDS011;27892;52.378;13.122;2023-06-22T10:27:37;4.43;;;4.00;;
42226;SDS011;27892;52.378;13.122;2023-06-22T10:30:05;4.18;;;3.78;;
42226;SDS011;27892;52.378;13.122;2023-06-22T10:32:35;4.57;;;4.18;;
42226;SDS011;27892;52.378;13.122;2023-06-22T10:35:02;5.80;;;3.92;;
42226;SDS011;27892;52.378;13.122;2023-06-22T10:37:28;3.70;;;3.40;;
42226;SDS011;27892;52.378;13.122;2023-06-22T10:39:54;3.35;;;3.05;;
42226;SDS011;27892;52.378;13.122;2023-06-22T10:42:19;3.83;;;3.50;;
42226;SDS011;27892;52.378;13.122;2023-06-22T10:44:45;3.80;;;3.40;;
42226;SDS011;27892;52.378;13.122;2023-06-22T10:47:11;24.27;;;18.85;;
42226;SDS011;27892;52.378;13.122;2023-06-22T10:49:38;13.27;;;11.88;;
42226;SDS011;27892;52.378;13.122;2023-06-22T10:52:04;5.38;;;4.88;;
42226;SDS011;27892;52.378;13.122;2023-06-22T10:54:33;4.38;;;3.97;;
42226;SDS011;27892;52.378;13.122;2023-06-22T10:57:00;3.75;;;3.42;;
42226;SDS011;27892;52.378;13.122;2023-06-22T10:59:26;6.30;;;3.70;;
42226;SDS011;27892;52.378;13.122;2023-06-22T11:01:52;4.20;;;3.80;;
42226;SDS011;27892;52.378;13.122;2023-06-22T11:04:18;3.60;;;3.30;;
42226;SDS011;27892;52.378;13.122;2023-06-22T11:06:44;5.63;;;4.10;;
42226;SDS011;27892;52.378;13.122;2023-06-22T11:09:09;5.22;;;4.28;;
42226;SDS011;27892;52.378;13.122;2023-06-22T11:11:35;4.13;;;3.83;;
42226;SDS011;27892;52.378;13.122;2023-06-22T11:14:01;3.97;;;3.65;;
42226;SDS011;27892;52.378;13.122;2023-06-22T11:16:27;4.40;;;4.00;;
42226;SDS011;27892;52.378;13.122;2023-06-22T11:18:53;4.32;;;3.92;;
42226;SDS011;27892;52.378;13.122;2023-06-22T11:21:18;4.13;;;3.78;;
42226;SDS011;27892;52.378;13.122;2023-06-22T11:23:44;4.75;;;3.70;;
42226;SDS011;27892;52.378;13.122;2023-06-22T11:26:10;4.05;;;3.65;;
42226;SDS011;27892;52.378;13.122;2023-06-22T11:28:36;4.10;;;3.70;;
42226;SDS011;27892;52.378;13.122;2023-06-22T11:31:02;7.72;;;6.97;;
42226;SDS011;27892;52.378;13.122;2023-06-22T11:33:28;9.15;;;8.25;;
42226;SDS011;27892;52.378;13.122;2023-06-22T11:35:54;4.30;;;3.90;;
42226;SDS011;27892;52.378;13.122;2023-06-22T11:38:21;4.18;;;3.80;;
42226;SDS011;27892;52.378;13.122;2023-06-22T11:40:47;4.95;;;3.83;;
42226;SDS011;27892;52.378;13.122;2023-06-22T11:43:12;3.70;;;3.40;;
42226;SDS011;27892;52.378;13.122;2023-06-22T11:45:40;3.40;;;3.20;;
42226;SDS011;27892;52.378;13.122;2023-06-22T11:48:05;3.38;;;3.15;;
42226;SDS011;27892;52.378;13.122;2023-06-22T11:50:31;3.33;;;3.13;;
42226;SDS011;27892;52.378;13.122;2023-06-22T11:53:01;4.97;;;4.00;;
42226;SDS011;27892;52.378;13.122;2023-06-22T11:55:27;4.53;;;4.13;;
42226;SDS011;27892;52.378;13.122;2023-06-22T11:57:54;4.72;;;3.65;;
42226;SDS011;27892;52.378;13.122;2023-06-22T12:00:21;4.53;;;3.90;;
42226;SDS011;27892;52.378;13.122;2023-06-22T12:02:49;3.13;;;2.92;;
42226;SDS011;27892;52.378;13.122;2023-06-22T12:05:16;4.50;;;4.00;;
42226;SDS011;27892;52.378;13.122;2023-06-22T12:07:43;3.88;;;3.58;;
42226;SDS011;27892;52.378;13.122;2023-06-22T12:10:09;4.07;;;3.67;;
42226;SDS011;27892;52.378;13.122;2023-06-22T12:12:35;3.42;;;3.20;;
42226;SDS011;27892;52.378;13.122;2023-06-22T12:15:00;3.95;;;3.58;;
42226;SDS011;27892;52.378;13.122;2023-06-22T12:17:29;4.18;;;3.88;;
42226;SDS011;27892;52.378;13.122;2023-06-22T12:19:55;3.83;;;3.53;;
42226;SDS011;27892;52.378;13.122;2023-06-22T12:22:21;4.05;;;3.72;;
42226;SDS011;27892;52.378;13.122;2023-06-22T12:24:46;3.60;;;3.30;;
42226;SDS011;27892;52.378;13.122;2023-06-22T12:27:12;4.10;;;3.65;;
42226;SDS011;27892;52.378;13.122;2023-06-22T12:29:38;3.25;;;3.03;;
42226;SDS011;27892;52.378;13.122;2023-06-22T12:32:03;3.17;;;2.97;;
42226;SDS011;27892;52.378;13.122;2023-06-22T12:34:29;4.63;;;3.50;;
42226;SDS011;27892;52.378;13.122;2023-06-22T12:36:55;3.80;;;3.50;;
42226;SDS011;27892;52.378;13.122;2023-06-22T12:39:20;5.13;;;4.40;;
42226;SDS011;27892;52.378;13.122;2023-06-22T12:41:46;10.27;;;9.10;;
42226;SDS011;27892;52.378;13.122;2023-06-22T12:44:12;6.38;;;5.78;;
42226;SDS011;27892;52.378;13.122;2023-06-22T12:46:37;4.55;;;4.13;;
42226;SDS011;27892;52.378;13.122;2023-06-22T12:49:03;5.03;;;4.15;;
42226;SDS011;27892;52.378;13.122;2023-06-22T12:51:30;5.13;;;4.13;;
42226;SDS011;27892;52.378;13.122;2023-06-22T12:53:56;3.75;;;3.45;;
42226;SDS011;27892;52.378;13.122;2023-06-22T12:56:21;5.78;;;4.47;;
42226;SDS011;27892;52.378;13.122;2023-06-22T12:58:47;3.72;;;3.22;;
42226;SDS011;27892;52.378;13.122;2023-06-22T13:01:13;4.90;;;4.50;;
42226;SDS011;27892;52.378;13.122;2023-06-22T13:03:39;4.82;;;4.43;;
42226;SDS011;27892;52.378;13.122;2023-06-22T13:06:05;7.43;;;6.70;;
42226;SDS011;27892;52.378;13.122;2023-06-22T13:08:32;6.35;;;5.75;;
42226;SDS011;27892;52.378;13.122;2023-06-22T13:10:57;5.38;;;4.88;;
42226;SDS011;27892;52.378;13.122;2023-06-22T13:13:23;5.97;;;4.70;;
42226;SDS011;27892;52.378;13.122;2023-06-22T13:15:52;4.03;;;3.72;;
42226;SDS011;27892;52.378;13.122;2023-06-22T13:18:18;4.28;;;3.95;;
42226;SDS011;27892;52.378;13.122;2023-06-22T13:20:43;3.70;;;3.40;;
42226;SDS011;27892;52.378;13.122;2023-06-22T13:23:10;3.40;;;3.20;;
42226;SDS011;27892;52.378;13.122;2023-06-22T13:25:36;3.75;;;3.45;;
42226;SDS011;27892;52.378;13.122;2023-06-22T13:28:02;4.10;;;3.70;;
42226;SDS011;27892;52.378;13.122;2023-06-22T13:30:28;3.40;;;3.10;;
42226;SDS011;27892;52.378;13.122;2023-06-22T13:32:54;4.07;;;3.40;;
42226;SDS011;27892;52.378;13.122;2023-06-22T13:35:19;3.20;;;3.00;;
42226;SDS011;27892;52.378;13.122;2023-06-22T13:37:45;4.82;;;3.80;;
42226;SDS011;27892;52.378;13.122;2023-06-22T13:40:11;4.15;;;3.83;;
42226;SDS011;27892;52.378;13.122;2023-06-22T13:42:37;4.50;;;4.20;;
42226;SDS011;27892;52.378;13.122;2023-06-22T13:45:02;5.22;;;3.80;;
42226;SDS011;27892;52.378;13.122;2023-06-22T13:47:29;4.20;;;3.90;;
42226;SDS011;27892;52.378;13.122;2023-06-22T13:49:55;3.83;;;3.53;;
42226;SDS011;27892;52.378;13.122;2023-06-22T13:52:22;3.50;;;3.20;;
42226;SDS011;27892;52.378;13.122;2023-06-22T13:54:48;3.58;;;3.28;;
42226;SDS011;27892;52.378;13.122;2023-06-22T13:57:17;4.45;;;4.07;;
42226;SDS011;27892;52.378;13.122;2023-06-22T13:59:43;3.83;;;3.53;;
42226;SDS011;27892;52.378;13.122;2023-06-22T14:02:08;5.45;;;4.05;;
42226;SDS011;27892;52.378;13.122;2023-06-22T14:04:34;4.68;;;3.95;;
42226;SDS011;27892;52.378;13.122;2023-06-22T14:06:59;3.50;;;3.20;;
42226;SDS011;27892;52.378;13.122;2023-06-22T14:09:25;3.70;;;3.40;;
42226;SDS011;27892;52.378;13.122;2023-06-22T14:11:51;4.40;;;4.00;;
42226;SDS011;27892;52.378;13.122;2023-06-22T14:14:19;4.45;;;4.05;;
42226;SDS011;27892;52.378;13.122;2023-06-22T14:16:44;6.43;;;4.50;;
42226;SDS011;27892;52.378;13.122;2023-06-22T14:19:10;5.43;;;4.70;;
42226;SDS011;27892;52.378;13.122;2023-06-22T14:21:38;4.63;;;3.80;;
42226;SDS011;27892;52.378;13.122;2023-06-22T14:24:04;6.68;;;4.03;;
42226;SDS011;27892;52.378;13.122;2023-06-22T14:26:30;4.65;;;4.25;;
42226;SDS011;27892;52.378;13.122;2023-06-22T14:28:58;3.90;;;3.60;;
42226;SDS011;27892;52.378;13.122;2023-06-22T14:31:24;4.53;;;4.13;;